x

Long Island - 30 Nm South Of Islip, Ny (44025) Wave Buoy

11:50pm - Tue 27th Sep 2016 All times are EDT. -4 hours from GMT.

  • Sig Wave height 3.6ft
  • Swell Direction
  • Peak Period 7s
  • Average Period 6s
  • Wind
  • Sea Temp 69°f
  • Air Temp 69°f
  • Sea Pressure 1014.7mb
  • Long Island - 30 Nm South Of Islip, Ny
  • Long Island - 30 Nm South Of Islip, Ny

More Historic Weather Station data

Upgrade to MSW Pro to gain access to the past 30 days of data for over 8000 Wavebouys and Weather Stations around the globe.

Join Pro

Comparision Forecast

View Surf forecast
   
Tue 09/27 11:50pm 3.5ft 7s 6s  -  2 mph 1014.7mb 69f 69f
10:50pm 3.5ft 7s 6s 4 7 mph 1014.5mb 70f 69f
9:50pm 3.5ft 7s 6s 9
mph
1014.2mb 70f 69f
8:50pm 3.5ft 7s 5s 11 13 mph 1013.7mb 70f 69f
7:50pm 4ft 7s 6s 7 9 mph 1013.2mb 70f 69f
6:50pm 4ft 7s 6s 9
mph
1013mb 70f 68f
5:50pm 4.5ft 8s 6s 7
mph
1012.4mb 70f 68f
4:50pm 4.5ft 7s 6s 9 11 mph 1012.2mb 70f 68f
3:50pm 4.5ft 6s 6s 7 9 mph 1012.2mb 70f 68f
2:50pm 4.5ft 6s 6s 7 9 mph 1012.8mb 70f 68f
1:50pm 4.5ft 7s 6s 7 9 mph 1012.4mb 70f 68f
12:50pm 4.5ft 6s 5s 9
mph
1013.2mb 70f 68f
11:50am 4ft 6s 5s 11 13 mph 1013.3mb 70f 67f
10:50am 3.5ft 6s 5s 9 13 mph 1013.8mb 70f 68f
9:50am 4.5ft 6s 5s 11 13 mph 1013.4mb 70f 68f
8:50am 5ft 6s 5s 16 20 mph 1012.9mb 70f 68f
7:50am 5.5ft 6s 5s 16 18 mph 1012.6mb 69f 70f
6:50am 6ft 6s 5s 20 22 mph 1012.1mb 69f 71f
5:50am 5.5ft 6s 5s 22 27 mph 1011.9mb 69f 69f
4:50am 4.5ft 5s 4s 25 34 mph 1012.1mb 69f 69f
3:50am 4ft 5s 4s 22 29 mph 1012.3mb 69f 69f
2:50am 3.5ft 5s 4s 18 22 mph 1013.3mb 69f 70f
1:50am 4ft 5s 4s 13 16 mph 1014.3mb 69f 70f
12:50am 4.5ft 5s 4s 16 18 mph 1015.1mb 69f 70f
Mon 09/26 11:50pm 4.5ft 5s 4s 18 20 mph 1016.1mb 69f 69f
10:50pm 3.5ft 4s 4s 20 25 mph 1017mb 69f 69f
9:50pm 3.5ft 4s 4s 20 25 mph 1017.4mb 69f 68f
8:50pm 3ft 4s 4s 20 25 mph 1017.7mb 69f 67f
7:50pm 2.5ft 9s 4s 18 20 mph 1018.2mb 69f 67f
6:50pm 2.5ft 10s 4s 16 20 mph 1018.3mb 69f 67f
5:50pm 2.5ft 10s 4s 13 16 mph 1018.7mb 69f 66f
4:50pm 2ft 10s 4s 13 16 mph 1018.7mb 69f 66f
3:50pm 2ft 10s 4s 11 13 mph 1019.8mb 69f 66f
2:50pm 2ft 10s 4s 13 16 mph 1020.2mb 69f 66f
1:50pm 2ft 10s 4s 11 16 mph 1020.6mb 69f 66f
12:50pm 1.6ft 10s 4s 13 16 mph 1021.4mb 69f 65f
11:50am 1.6ft 10s 4s 11 13 mph 1022mb 69f 65f
10:50am 1.6ft 10s 4s 11 13 mph 1022.3mb 69f 65f
9:50am 2ft 10s 5s 9 13 mph 1022.5mb 69f 65f
8:50am 1.6ft 10s 5s 7 11 mph 1022.3mb 69f 65f
7:50am 1.6ft 10s 5s 7 9 mph 1022.3mb 69f 65f
6:50am 1.6ft 10s 5s 4 9 mph 1021.9mb 69f 64f
5:50am 2ft 9s 5s 7 9 mph 1021.3mb 69f 64f
4:50am 2ft 10s 5s 7 9 mph 1021.4mb 69f 64f
3:50am 2ft 9s 5s 9 11 mph 1021.3mb 69f 64f
2:50am 2ft 10s 5s 11 13 mph 1021.5mb 69f 65f
1:50am 2.5ft 10s 5s 11 13 mph 1022mb 69f 65f
12:50am 2.5ft 10s 5s 11 16 mph 1021.9mb 70f 65f
Sun 09/25 11:50pm 2.5ft 10s 5s 13 16 mph 1021.8mb 70f 66f
10:50pm 2.5ft 10s 5s 13 16 mph 1021.7mb 70f 66f
9:50pm 2.5ft 11s 6s 11 16 mph 1021.5mb 70f 67f
8:50pm 3ft 10s 7s 13 16 mph 1021.1mb 70f 67f
7:50pm 3ft 11s 7s 13 16 mph 1020.5mb 70f 66f
6:50pm 3.5ft 11s 8s 9 16 mph 1020.4mb 70f 65f
5:50pm 3.5ft 11s 7s 7 9 mph 1020mb 69f 64f
4:50pm 3ft 11s 6s 4 9 mph 1020.1mb 69f 63f
3:50pm 3.5ft 11s 7s 7 11 mph 1020.3mb 69f 62f
2:50pm 4ft 11s 7s 7 13 mph 1020.8mb 69f 62f
1:50pm 4.5ft 11s 7s 9 16 mph 1021.1mb 69f 61f
12:50pm 4.5ft 11s 6s 13 18 mph 1021.5mb 70f 61f
11:50am 4.5ft 11s 6s 13 16 mph 1021.9mb 70f 60f
10:50am 4.5ft 12s 6s 16 18 mph 1021.8mb 70f 60f
9:50am 5ft 12s 7s 16 20 mph 1021.5mb 70f 60f
8:50am 4.5ft 11s 6s 13 18 mph 1021.6mb 70f 60f
7:50am 4.5ft 11s 5s 16 20 mph 1021.4mb 70f 61f
6:50am 5ft 11s 5s 18 22 mph 1020.8mb 71f 62f
5:50am 4.5ft 11s 5s 20 25 mph 1020.2mb 71f 62f
4:50am 4.5ft 11s 5s 20 25 mph 1019.8mb 71f 63f
3:50am 4.5ft 10s 6s 20 25 mph 1019.4mb 71f 63f
2:50am 4.5ft 11s 5s 18 20 mph 1019.6mb 71f 64f
1:50am 4.5ft 9s 6s 18 22 mph 1019.6mb 71f 65f
12:50am 4ft 10s 6s 11 16 mph 1019.4mb 71f 66f
Sat 09/24 11:50pm 4.5ft 10s 6s 13 16 mph 1019.6mb 71f 66f
10:50pm 4.5ft 10s 6s 16 18 mph 1019.8mb 71f 67f
9:50pm 4.5ft 11s 6s 11 13 mph 1019.6mb 71f 67f
8:50pm 4.5ft 11s 7s 7 9 mph 1019.5mb 71f 66f
7:50pm 4ft 11s 7s 7 9 mph 1019mb 71f 66f
6:50pm 4ft 11s 6s 7 11 mph 1018.5mb 71f 66f
5:50pm 4ft 11s 6s 9 13 mph 1018.3mb 71f 65f
4:50pm 4.5ft 11s 6s 11 16 mph 1017.9mb 71f 65f
3:50pm 4.5ft 10s 6s 11 16 mph 1017.9mb 71f 64f
2:50pm 5ft 11s 6s 13 18 mph 1018mb 71f 63f
1:50pm 5ft 6s 5s 13 16 mph 1018.4mb 71f 63f
12:50pm 5ft 11s 5s 16 20 mph 1018.8mb 71f 63f
11:50am 5ft 7s 5s 20 22 mph 1018.7mb 71f 63f
10:50am 6ft 10s 5s 18 22 mph 1018.5mb 71f 63f
9:50am 6ft 11s 5s 22 27 mph 1018.1mb 71f 62f
8:50am 5.5ft 6s 5s 22 27 mph 1017.7mb 71f 62f
7:50am 6ft 6s 5s 25 29 mph 1017.3mb 71f 64f
6:50am 6ft 6s 5s 22 27 mph 1016.3mb 71f 64f
5:50am 6ft 5s 5s 25 29 mph 1015.5mb 71f 65f